ANA526 RJOK-RJTT
Flight info
| Callsign | ANA526 |
|---|---|
| Flight time | N/A |
| Altitude | 41000 |
| Route | MUROT MIYAT MERID KEC Y43 MENUR Y21 AKSEL |
| Aircraft | B772/H-SDE2E3FGHIJ5LORVWXY/LB1D1 |
Departure
| Time | 2026-04-30 14:09 |
|---|---|
| Airport | Kochi Ryoma Airport (RJOK) |
Arrival
| Time | N/A |
|---|---|
| Airport | Tokyo Haneda International Airport (RJTT) |
| Time | Latitude | Longitude | Altitude | Speed | Heading |
|---|---|---|---|---|---|
| 2026-04-30 13:57 | 33.54688 | 133.67394 | 43 ft | 0 kts | 43° |
| 2026-04-30 14:02 | 33.54688 | 133.67393 | 43 ft | 2 kts | 43° |
| 2026-04-30 14:02 | 33.54669 | 133.67373 | 43 ft | 4 kts | 43° |
| 2026-04-30 14:03 | 33.54650 | 133.67351 | 43 ft | 4 kts | 43° |
| 2026-04-30 14:03 | 33.54630 | 133.67329 | 43 ft | 4 kts | 43° |
| 2026-04-30 14:03 | 33.54610 | 133.67306 | 43 ft | 4 kts | 43° |
| 2026-04-30 14:03 | 33.54593 | 133.67287 | 43 ft | 2 kts | 43° |
| 2026-04-30 14:04 | 33.54580 | 133.67271 | 43 ft | 4 kts | 83° |
| 2026-04-30 14:04 | 33.54582 | 133.67260 | 43 ft | 4 kts | 141° |
| 2026-04-30 14:04 | 33.54603 | 133.67240 | 43 ft | 4 kts | 134° |
| 2026-04-30 14:04 | 33.54608 | 133.67234 | 43 ft | 0 kts | 130° |
| 2026-04-30 14:06 | 33.54589 | 133.67261 | 43 ft | 18 kts | 130° |
| 2026-04-30 14:07 | 33.54230 | 133.67764 | 43 ft | 45 kts | 129° |
| 2026-04-30 14:07 | 33.54067 | 133.67993 | 43 ft | 26 kts | 132° |
| 2026-04-30 14:07 | 33.53966 | 133.68028 | 43 ft | 14 kts | 213° |
| 2026-04-30 14:08 | 33.53920 | 133.67893 | 43 ft | 6 kts | 309° |
| 2026-04-30 14:08 | 33.53925 | 133.67885 | 43 ft | 0 kts | 311° |
| 2026-04-30 14:08 | 33.54486 | 133.67102 | 43 ft | 134 kts | 311° |
| 2026-04-30 14:09 | 33.55198 | 133.66105 | 386 ft | 167 kts | 311° |
| 2026-04-30 14:09 | 33.55924 | 133.65030 | 1373 ft | 167 kts | 310° |
| 2026-04-30 14:09 | 33.58063 | 133.64008 | 2395 ft | 198 kts | 9° |
| 2026-04-30 14:10 | 33.59304 | 133.64866 | 2756 ft | 219 kts | 43° |
| 2026-04-30 14:10 | 33.60051 | 133.66525 | 3208 ft | 236 kts | 74° |
| 2026-04-30 14:10 | 33.60116 | 133.67840 | 3640 ft | 242 kts | 93° |
| 2026-04-30 14:10 | 33.59678 | 133.69813 | 4419 ft | 248 kts | 112° |
| 2026-04-30 14:11 | 33.58940 | 133.71711 | 5213 ft | 254 kts | 115° |
| 2026-04-30 14:11 | 33.58196 | 133.73631 | 6209 ft | 254 kts | 117° |
| 2026-04-30 14:11 | 33.57438 | 133.75561 | 7117 ft | 257 kts | 118° |
| 2026-04-30 14:11 | 33.56669 | 133.77520 | 7999 ft | 261 kts | 118° |
| 2026-04-30 14:12 | 33.55891 | 133.79494 | 8950 ft | 262 kts | 119° |
| 2026-04-30 14:12 | 33.55372 | 133.80816 | 9515 ft | 266 kts | 119° |
| 2026-04-30 14:12 | 33.55126 | 133.81443 | 9699 ft | 271 kts | 120° |